PPRuNe Forums - View Single Post - Helicopter crashes into the Hudson River NYC
Old 25th May 2019, 17:54
  #26 (permalink)  
JimEli
 
Join Date: Dec 2006
Location: yes
Posts: 189
Originally Posted by wrench1 View Post
Sad, that this day and age, a 2 year old, empty aircraft, at sea level, can't handle:

KTEB 151851Z 29010G16KT 10SM FEW070 21/05 A2979 RMK AO2 SLP087
KEWR 151851Z 27014G18KT 10SM SCT070 22/04 A2980 RMK AO2 SLP090
KLGA 151851Z 32008G22KT 10SM SCT060 19/04 A2980 RMK AO2 SLP090
JimEli is offline